ROMMA est une association bénévole à but non lucratif. Votre soutien est indispensable : ADHERER à ROMMA ou FAIRE un DON

Recoubeau - (26, Drôme)

Diois (510 m)   Longitude: 5° 24' E   Latitude: 44° 39' N Station partenaire n°64
 

Détail journalier du     <<     >>

Température Precipitation Humidité Pression Vent Dir Rafale Dir. rafale
Heure (°C) (mm) (%) (hPa) (km/h) (km/h)
01:00 3.208110161SSE6SSE
02:00 1.708510163SSE6SSE
03:00 0.808710161SSE6SSE
04:00 0.208910162SSE6SSE
05:00 0.309010163SSE10SSE
06:00 -0.409010162SSE10SE
07:00 -0.809210162SSE6S
08:00 -0.609310161SSE6SSE
09:00 3.8086101706SE
10:00 7.907010171NNO8NO
11:00 10.305910167NNO16N
12:00 12.105510164NNO16NNO
13:00 13.404910155N15NO
14:00 14.404710159NO23NNO
15:00 14.8048101511OSO31NNO
16:00 14.8045101411NO31NNO
17:00 14.3038101412O31OSO
18:00 12.9043101413O34OSO
19:00 11.5045101510NNO31O
20:00 9.404810159O27SO
21:00 8.105010169O26ONO
22:00 6.205710165O16O
23:00 1.707510161S6S
minuit 0.407910162S6S

Graphique du 13-04-2019

 

Serveur OMMA